To NAV CANADA Home Page Login to a new session Search on AWWS site Disclaimer Vers la page française équivalente Tips FAQ What's new on the site To the Forecasts and Observations / NOTAM section To "File a Flight Plan" website Publications and other links Update of the User's profile FIC Telephone Numbers My Weather Data Folder Route Weather Data Regional Weather Data Local Weather Data To the Forecasts and Observations / NOTAM section
Request Generated 11/13/2018 at 18:42:52 UTC . Weather information available at that time is displayed.

METAR/TAF

EASTMAIN RIVER/QC    

METAR CZEM 131800Z 23010G19KT 10SM VCSH OVC035 M11/M16 A3002 RMK SC8 SLP169=
METAR CZEM 131700Z 23014G21KT 5SM -SN SCT025 OVC035 M11/M15 A3003 RMK SC3SC5 SLP170=
METAR CZEM 131600Z 22014G22KT 3SM -SN OVC025 M11/M15 A3003 RMK SC8 SLP171=

CZEM - No TAF is issued for this station

Your time UTC time
Weather data provided by Environment Canada and NAV CANADA